Time;durP1;ratioP1;P1;durP2;ratioP2;P2;SDS_P1;SDS_P2;PMS_P1;PMS_P2;Temp;Humidity;BMP_temperature;BMP_pressure;BME280_temperature;BME280_humidity;BME280_pressure;Samples;Min_cycle;Max_cycle;Signal;HPM_P1;HPM_P2
2023/09/22 00:04:04;;;;;;;4.60;2.90;;;18.80;97.80;;;;;;10509531;28;20406;-64
2023/09/22 00:09:07;;;;;;;3.20;2.70;;;18.70;97.70;;;;;;10513651;28;20390;-65
2023/09/22 00:14:08;;;;;;;3.67;3.00;;;18.70;97.70;;;;;;10514722;28;20398;-64
2023/09/22 00:19:09;;;;;;;3.23;2.83;;;18.80;97.80;;;;;;10504959;28;20447;-65
2023/09/22 00:24:10;;;;;;;4.53;3.10;;;18.70;97.70;;;;;;10515364;28;20413;-65
2023/09/22 00:29:10;;;;;;;4.32;3.13;;;18.70;97.80;;;;;;10509407;28;20390;-65
2023/09/22 00:34:11;;;;;;;3.28;2.85;;;18.70;97.80;;;;;;10494718;28;20460;-65
2023/09/22 00:39:11;;;;;;;4.05;3.22;;;18.70;97.70;;;;;;10486955;28;20528;-66
2023/09/22 00:44:12;;;;;;;3.35;2.90;;;18.70;97.80;;;;;;10496400;28;20419;-65
2023/09/22 00:49:13;;;;;;;3.67;3.13;;;18.70;97.80;;;;;;10487105;28;20388;-65
2023/09/22 00:54:14;;;;;;;3.33;2.90;;;18.70;97.80;;;;;;10490846;28;20391;-64
2023/09/22 00:59:15;;;;;;;3.40;3.10;;;18.70;97.80;;;;;;10495578;28;20400;-65
2023/09/22 01:04:19;;;;;;;3.97;3.38;;;18.70;97.80;;;;;;10482707;28;20825;-64
2023/09/22 01:09:20;;;;;;;3.45;3.05;;;18.70;97.80;;;;;;10491468;28;20392;-65
2023/09/22 01:14:21;;;;;;;3.50;3.20;;;18.70;97.70;;;;;;10490640;28;20820;-65
2023/09/22 01:19:22;;;;;;;4.85;3.53;;;18.70;97.80;;;;;;10492192;28;20397;-65
2023/09/22 01:24:23;;;;;;;4.45;3.40;;;18.70;97.80;;;;;;10489231;28;20508;-65
2023/09/22 01:29:24;;;;;;;5.47;3.65;;;18.70;97.70;;;;;;10500196;28;20406;-65
2023/09/22 01:34:25;;;;;;;3.43;3.10;;;18.70;97.70;;;;;;10485881;28;20415;-64
2023/09/22 01:39:25;;;;;;;4.23;3.50;;;18.60;97.70;;;;;;10488806;28;20403;-65
2023/09/22 01:44:26;;;;;;;4.57;3.70;;;18.60;97.70;;;;;;10492346;28;20408;-65
2023/09/22 01:49:27;;;;;;;4.07;3.67;;;18.60;97.70;;;;;;10491186;28;20396;-66
2023/09/22 01:54:27;;;;;;;3.92;3.53;;;18.60;97.70;;;;;;10496206;28;20767;-64
2023/09/22 01:59:28;;;;;;;3.70;3.35;;;18.60;97.60;;;;;;10495650;28;20395;-65
2023/09/22 02:04:30;;;;;;;3.80;3.40;;;18.60;97.60;;;;;;10495521;28;20699;-65
2023/09/22 02:09:31;;;;;;;3.50;3.20;;;18.60;97.60;;;;;;10492415;28;20411;-65
2023/09/22 02:14:32;;;;;;;3.42;3.13;;;18.60;97.60;;;;;;10488623;28;21135;-65
2023/09/22 02:19:38;;;;;;;4.63;3.40;;;18.60;97.60;;;;;;10497901;28;20436;-65
2023/09/22 02:24:39;;;;;;;3.92;3.35;;;18.50;97.50;;;;;;10490336;28;20441;-65
2023/09/22 02:29:40;;;;;;;4.07;3.30;;;18.50;97.50;;;;;;10499766;28;20478;-65
2023/09/22 02:34:40;;;;;;;4.23;3.50;;;18.60;97.50;;;;;;10497515;28;20406;-64
2023/09/22 02:39:41;;;;;;;3.50;3.20;;;18.50;97.50;;;;;;10490034;28;20390;-65
2023/09/22 02:44:42;;;;;;;4.40;3.47;;;18.50;97.50;;;;;;10488133;28;20758;-65
2023/09/22 02:49:43;;;;;;;4.30;3.20;;;18.50;97.50;;;;;;10484866;28;20392;-65
2023/09/22 02:54:43;;;;;;;4.57;3.20;;;18.50;97.50;;;;;;10499559;28;20393;-65
2023/09/22 02:59:44;;;;;;;3.60;2.90;;;18.50;97.50;;;;;;10499977;28;20443;-66
2023/09/22 03:04:45;;;;;;;4.57;2.92;;;18.40;97.40;;;;;;10487552;28;20477;-65
2023/09/22 03:09:45;;;;;;;3.43;2.73;;;18.40;97.40;;;;;;10490450;28;20457;-65
2023/09/22 03:14:49;;;;;;;4.10;2.77;;;18.40;97.50;;;;;;10492447;28;20677;-66
2023/09/22 03:19:49;;;;;;;4.57;3.08;;;18.40;97.40;;;;;;10502953;28;20454;-64
2023/09/22 03:24:50;;;;;;;3.60;2.97;;;18.40;97.40;;;;;;10491075;28;20471;-65
2023/09/22 03:29:51;;;;;;;4.20;3.10;;;18.40;97.40;;;;;;10501240;28;20858;-64
2023/09/22 03:34:52;;;;;;;4.70;3.15;;;18.40;97.40;;;;;;10494253;28;20402;-65
2023/09/22 03:39:53;;;;;;;4.53;3.45;;;18.40;97.40;;;;;;10500670;28;20918;-64
2023/09/22 03:44:54;;;;;;;5.22;3.60;;;18.40;97.40;;;;;;10499407;28;20427;-65
2023/09/22 03:49:55;;;;;;;5.53;4.13;;;18.40;97.40;;;;;;10508162;28;20414;-66
2023/09/22 03:54:55;;;;;;;4.93;3.77;;;18.40;97.40;;;;;;10511924;28;20487;-65
2023/09/22 03:59:56;;;;;;;5.60;4.20;;;18.40;97.30;;;;;;10509101;28;20412;-65
2023/09/22 04:04:57;;;;;;;5.53;4.40;;;18.40;97.40;;;;;;10507843;28;20771;-65
2023/09/22 04:09:58;;;;;;;6.03;4.47;;;18.40;97.40;;;;;;10510181;28;20419;-66
2023/09/22 04:14:59;;;;;;;5.47;4.50;;;18.30;97.30;;;;;;10510388;28;20942;-66
2023/09/22 04:20:07;;;;;;;6.55;4.95;;;18.30;97.30;;;;;;10507267;28;20399;-65
2023/09/22 04:25:11;;;;;;;6.97;4.80;;;18.30;97.30;;;;;;10496542;28;20398;-65
2023/09/22 04:30:15;;;;;;;6.07;4.95;;;18.30;97.30;;;;;;10501523;28;20396;-65
2023/09/22 04:35:16;;;;;;;7.55;5.00;;;18.30;97.30;;;;;;10494696;28;20504;-65
2023/09/22 04:40:23;;;;;;;8.70;5.37;;;18.30;97.30;;;;;;10501997;28;20882;-66
2023/09/22 04:45:24;;;;;;;8.38;6.00;;;18.30;97.50;;;;;;10505223;28;20409;-66
2023/09/22 04:50:25;;;;;;;8.70;6.23;;;18.30;97.20;;;;;;10500939;28;20438;-66
2023/09/22 04:55:29;;;;;;;8.03;6.00;;;18.30;97.20;;;;;;10499552;28;20918;-66
2023/09/22 05:00:33;;;;;;;8.90;6.53;;;18.20;97.20;;;;;;10492864;28;20471;-65
2023/09/22 05:05:34;;;;;;;9.37;6.80;;;18.30;97.30;;;;;;10494821;28;20404;-66
2023/09/22 05:10:34;;;;;;;9.77;6.93;;;18.20;97.20;;;;;;10502862;28;20382;-66
2023/09/22 05:15:35;;;;;;;8.87;6.57;;;18.20;97.10;;;;;;10492476;28;20402;-65
2023/09/22 05:20:35;;;;;;;9.00;6.70;;;18.20;97.20;;;;;;10506575;28;20428;-65
2023/09/22 05:25:40;;;;;;;10.02;6.90;;;18.20;97.10;;;;;;10504375;28;20402;-66
2023/09/22 05:30:40;;;;;;;9.43;7.07;;;18.20;97.10;;;;;;10501322;28;20448;-64
2023/09/22 05:35:41;;;;;;;8.90;6.50;;;18.20;97.10;;;;;;10501146;28;21029;-65
2023/09/22 05:40:43;;;;;;;9.85;6.95;;;18.20;97.00;;;;;;10511594;28;20386;-63
2023/09/22 05:45:44;;;;;;;9.77;6.70;;;18.20;97.00;;;;;;10509493;28;20759;-65
2023/09/22 05:50:57;;;;;;;9.83;6.90;;;18.20;97.00;;;;;;10506743;28;20963;-65
2023/09/22 05:56:10;;;;;;;9.18;6.90;;;18.10;96.90;;;;;;10507216;28;20478;-65
2023/09/22 06:01:13;;;;;;;8.25;6.07;;;18.10;97.00;;;;;;10509096;28;20390;-63
2023/09/22 06:06:15;;;;;;;8.37;5.97;;;18.10;96.90;;;;;;10468308;28;20846;-65
2023/09/22 06:11:17;;;;;;;8.48;6.28;;;18.10;96.90;;;;;;10507436;28;20405;-66
2023/09/22 06:16:18;;;;;;;8.32;5.97;;;18.10;96.90;;;;;;10506228;28;20413;-65
2023/09/22 06:21:18;;;;;;;8.87;6.20;;;18.10;97.00;;;;;;10501182;28;20439;-66
2023/09/22 06:26:19;;;;;;;7.75;5.97;;;18.20;96.90;;;;;;10503168;28;20502;-67
2023/09/22 06:31:20;;;;;;;8.45;5.82;;;18.10;96.90;;;;;;10480634;28;20409;-66
2023/09/22 06:36:22;;;;;;;8.57;5.75;;;18.10;96.90;;;;;;10485012;28;20409;-66
2023/09/22 06:41:23;;;;;;;8.25;5.60;;;18.10;96.90;;;;;;10490443;28;20410;-65
2023/09/22 06:46:24;;;;;;;7.53;5.50;;;18.10;96.90;;;;;;10498655;28;20417;-65
2023/09/22 06:51:24;;;;;;;7.53;5.70;;;18.10;96.90;;;;;;10484596;28;20401;-66
2023/09/22 06:56:25;;;;;;;7.70;5.43;;;18.10;96.90;;;;;;10496832;28;20399;-65
2023/09/22 07:01:25;;;;;;;7.20;5.07;;;18.10;96.90;;;;;;10490945;28;20944;-65
2023/09/22 07:06:27;;;;;;;7.33;5.43;;;18.10;96.90;;;;;;10490651;28;20426;-66
2023/09/22 07:11:28;;;;;;;7.20;5.20;;;18.10;96.90;;;;;;10490806;28;20793;-68
2023/09/22 07:16:29;;;;;;;7.13;5.07;;;18.10;96.90;;;;;;10485764;28;20494;-66
2023/09/22 07:21:29;;;;;;;8.18;5.00;;;18.10;97.10;;;;;;10486165;28;20407;-66
2023/09/22 07:26:30;;;;;;;7.23;4.90;;;18.10;97.10;;;;;;10494861;28;20431;-66
2023/09/22 07:31:31;;;;;;;6.50;4.63;;;18.10;97.00;;;;;;10489497;28;20474;-66
2023/09/22 07:36:31;;;;;;;6.60;4.60;;;18.10;97.00;;;;;;10481038;28;20439;-65
2023/09/22 07:41:33;;;;;;;6.37;4.70;;;18.20;96.90;;;;;;10483830;28;20414;-67
2023/09/22 07:46:33;;;;;;;7.00;4.53;;;18.20;96.90;;;;;;10501459;28;20944;-66
2023/09/22 07:51:34;;;;;;;7.93;4.97;;;18.20;97.00;;;;;;10482618;28;20572;-67
2023/09/22 07:56:35;;;;;;;6.60;4.40;;;18.20;96.90;;;;;;10490526;28;20406;-66
2023/09/22 08:01:35;;;;;;;5.95;4.18;;;18.20;96.90;;;;;;10501631;28;20826;-67
2023/09/22 08:06:36;;;;;;;5.55;4.07;;;18.20;96.90;;;;;;10488419;28;20418;-65
2023/09/22 08:11:37;;;;;;;5.32;3.78;;;18.20;96.90;;;;;;10497758;28;20421;-66
2023/09/22 08:16:38;;;;;;;4.83;3.50;;;18.20;96.90;;;;;;10491047;28;20477;-66
2023/09/22 08:21:39;;;;;;;4.60;3.67;;;18.20;96.90;;;;;;10492351;28;20431;-66
2023/09/22 08:26:41;;;;;;;4.93;3.57;;;18.20;96.80;;;;;;10489392;28;20608;-66
2023/09/22 08:31:42;;;;;;;5.00;3.50;;;18.20;96.80;;;;;;10494399;28;20455;-67
2023/09/22 08:36:43;;;;;;;4.37;3.30;;;18.20;96.80;;;;;;10494775;28;20930;-68
2023/09/22 08:41:45;;;;;;;3.97;3.22;;;18.20;96.90;;;;;;10495087;28;20748;-66
2023/09/22 08:46:47;;;;;;;4.30;3.03;;;18.20;97.00;;;;;;10505144;28;20424;-64
2023/09/22 08:51:49;;;;;;;4.88;3.30;;;18.20;96.80;;;;;;10493336;28;20650;-64
2023/09/22 08:56:50;;;;;;;4.22;3.10;;;18.30;96.60;;;;;;10499458;28;20514;-64
2023/09/22 09:01:50;;;;;;;4.40;3.10;;;18.30;96.60;;;;;;10501497;28;20412;-65
2023/09/22 09:06:53;;;;;;;4.35;3.25;;;18.30;96.60;;;;;;10495827;28;20400;-65
2023/09/22 09:12:02;;;;;;;4.65;3.20;;;18.30;96.80;;;;;;10497640;28;20452;-65
2023/09/22 09:17:21;;;;;;;4.50;3.13;;;18.30;96.40;;;;;;10502275;28;20439;-65
2023/09/22 09:22:30;;;;;;;5.17;2.90;;;18.40;96.20;;;;;;10494582;28;20479;-64
2023/09/22 09:27:31;;;;;;;3.75;2.53;;;18.50;96.10;;;;;;10484911;28;20972;-65
2023/09/22 09:32:32;;;;;;;3.00;2.63;;;18.60;96.00;;;;;;10489278;28;20443;-65
2023/09/22 09:37:32;;;;;;;3.28;2.70;;;18.70;95.90;;;;;;10491231;28;20621;-65
2023/09/22 09:42:39;;;;;;;2.95;2.60;;;18.70;95.80;;;;;;10487214;28;20467;-65
2023/09/22 09:47:43;;;;;;;3.42;2.50;;;18.80;95.70;;;;;;10506574;28;21047;-64
2023/09/22 09:52:57;;;;;;;2.63;2.28;;;18.80;95.50;;;;;;10494734;28;20688;-65
2023/09/22 09:58:01;;;;;;;2.50;2.17;;;18.90;95.60;;;;;;10487763;28;20426;-65
2023/09/22 10:03:06;;;;;;;3.83;2.30;;;18.80;95.60;;;;;;10500185;28;20880;-65
2023/09/22 10:08:11;;;;;;;2.92;2.38;;;18.80;95.60;;;;;;10499624;28;20406;-65
2023/09/22 10:13:11;;;;;;;3.60;2.30;;;18.80;95.70;;;;;;10506438;28;20759;-65
2023/09/22 10:18:17;;;;;;;2.60;2.17;;;18.80;95.70;;;;;;10494218;28;20397;-64
2023/09/22 10:23:22;;;;;;;3.63;2.13;;;18.70;95.60;;;;;;10509370;28;20406;-64
2023/09/22 10:28:28;;;;;;;4.60;2.30;;;18.70;95.50;;;;;;10497256;28;20460;-70
2023/09/22 10:33:32;;;;;;;2.88;2.22;;;18.80;95.70;;;;;;10495060;28;20499;-68
2023/09/22 10:38:53;;;;;;;2.83;2.30;;;18.80;95.40;;;;;;10492703;28;20405;-68
2023/09/22 10:43:58;;;;;;;3.13;2.35;;;18.80;95.10;;;;;;10501674;28;20471;-68
2023/09/22 10:48:59;;;;;;;2.88;2.15;;;18.90;95.10;;;;;;10497671;28;20440;-68
2023/09/22 10:53:59;;;;;;;2.20;2.00;;;19.00;94.90;;;;;;10516804;28;20945;-68
2023/09/22 10:59:00;;;;;;;2.30;1.60;;;19.00;94.90;;;;;;10493753;28;20395;-66
2023/09/22 11:04:04;;;;;;;2.00;1.80;;;19.00;93.50;;;;;;10496303;28;20850;-68
2023/09/22 11:09:05;;;;;;;2.58;1.70;;;18.80;92.20;;;;;;10488166;28;20895;-67
2023/09/22 11:14:07;;;;;;;3.08;1.77;;;18.70;91.70;;;;;;10479290;28;20502;-66
2023/09/22 11:19:08;;;;;;;2.47;1.60;;;18.70;92.00;;;;;;10487808;28;20422;-67
2023/09/22 11:24:09;;;;;;;3.00;1.70;;;18.70;92.50;;;;;;10487048;28;20414;-69
2023/09/22 11:29:10;;;;;;;1.70;1.55;;;18.70;92.10;;;;;;10491960;28;20751;-66
2023/09/22 11:34:11;;;;;;;2.47;1.60;;;18.70;92.20;;;;;;10481224;28;20415;-67
2023/09/22 11:39:23;;;;;;;2.20;1.30;;;18.80;91.80;;;;;;10488216;28;21030;-67
2023/09/22 11:44:24;;;;;;;3.55;1.50;;;18.90;92.00;;;;;;10483701;28;20495;-67
2023/09/22 11:49:38;;;;;;;2.10;1.37;;;18.80;91.50;;;;;;10489925;28;20402;-67
2023/09/22 11:54:39;;;;;;;2.28;1.58;;;19.00;91.30;;;;;;10492275;28;20424;-67
2023/09/22 11:59:40;;;;;;;2.80;1.60;;;19.00;91.40;;;;;;10493922;28;20406;-66
2023/09/22 12:04:42;;;;;;;2.80;1.60;;;19.00;91.10;;;;;;10505041;28;20489;-67
2023/09/22 12:09:42;;;;;;;2.60;1.63;;;19.00;91.40;;;;;;10493839;28;20507;-69
2023/09/22 12:14:43;;;;;;;2.70;1.60;;;18.80;91.50;;;;;;10502194;28;20531;-69
2023/09/22 12:19:43;;;;;;;3.20;1.80;;;18.80;91.70;;;;;;10498189;28;20402;-68
2023/09/22 12:24:44;;;;;;;2.10;1.40;;;18.70;92.20;;;;;;10497934;28;20411;-69
2023/09/22 12:29:46;;;;;;;1.98;1.40;;;18.70;91.80;;;;;;10492053;28;20945;-69
2023/09/22 12:34:47;;;;;;;2.15;1.50;;;18.90;91.80;;;;;;10499552;28;20405;-68
2023/09/22 12:39:48;;;;;;;3.25;1.60;;;19.00;91.30;;;;;;10493604;28;20398;-70
2023/09/22 12:44:50;;;;;;;2.93;1.60;;;19.10;91.20;;;;;;10492935;28;20412;-67
2023/09/22 12:49:50;;;;;;;2.60;1.27;;;19.10;91.30;;;;;;10493992;28;20508;-67
2023/09/22 12:54:52;;;;;;;1.70;1.30;;;19.10;91.60;;;;;;10504080;28;20960;-67
2023/09/22 12:59:52;;;;;;;2.30;1.30;;;19.20;91.90;;;;;;10495973;28;20470;-66
2023/09/22 13:04:55;;;;;;;2.63;1.30;;;19.30;92.10;;;;;;10499916;28;20414;-67
2023/09/22 13:09:56;;;;;;;2.50;1.60;;;19.30;92.10;;;;;;10498008;28;20393;-67
2023/09/22 13:14:57;;;;;;;1.48;1.30;;;19.30;92.40;;;;;;10502194;28;20394;-68
2023/09/22 13:19:57;;;;;;;2.10;1.30;;;19.40;92.20;;;;;;10493628;28;20828;-67
2023/09/22 13:24:58;;;;;;;2.63;1.23;;;19.40;92.20;;;;;;10494817;28;20496;-67
2023/09/22 13:29:59;;;;;;;1.35;1.20;;;19.40;92.50;;;;;;10500074;28;20391;-67
2023/09/22 13:35:00;;;;;;;1.60;1.40;;;19.40;92.50;;;;;;10494228;28;20412;-67
2023/09/22 13:40:01;;;;;;;2.03;1.38;;;19.40;92.50;;;;;;10485607;28;20609;-67
2023/09/22 13:45:01;;;;;;;1.90;1.20;;;19.40;92.60;;;;;;10492724;28;21106;-67
2023/09/22 13:50:03;;;;;;;1.50;1.30;;;19.40;92.70;;;;;;10496483;28;20410;-67
2023/09/22 13:55:04;;;;;;;1.83;1.38;;;19.50;92.80;;;;;;10507709;28;20421;-68
2023/09/22 14:00:10;;;;;;;2.13;1.47;;;19.40;92.80;;;;;;10502273;28;20486;-67
2023/09/22 14:05:11;;;;;;;2.13;1.40;;;19.50;92.90;;;;;;10502102;28;20407;-67
2023/09/22 14:10:14;;;;;;;1.87;1.50;;;19.50;92.90;;;;;;10507405;28;20391;-66
2023/09/22 14:15:15;;;;;;;1.90;1.50;;;19.50;92.90;;;;;;10506290;28;20407;-67
2023/09/22 14:20:15;;;;;;;1.40;1.30;;;19.50;92.90;;;;;;10494002;28;20420;-67
2023/09/22 14:25:17;;;;;;;2.35;1.50;;;19.50;93.00;;;;;;10495095;28;20408;-66
2023/09/22 14:30:17;;;;;;;1.80;1.43;;;19.60;92.90;;;;;;10499211;28;20738;-67
2023/09/22 14:35:18;;;;;;;1.83;1.40;;;19.60;92.80;;;;;;10494987;28;20420;-67
2023/09/22 14:40:19;;;;;;;1.97;1.53;;;19.70;92.80;;;;;;10489375;28;20443;-68
2023/09/22 14:45:20;;;;;;;1.90;1.60;;;19.70;92.90;;;;;;10495250;28;20406;-67
2023/09/22 14:50:27;;;;;;;2.00;1.50;;;19.80;92.80;;;;;;10492183;28;20401;-68
2023/09/22 14:55:28;;;;;;;2.22;1.60;;;19.90;92.50;;;;;;10497156;28;20410;-68
2023/09/22 15:00:29;;;;;;;1.60;1.50;;;20.00;92.40;;;;;;10499009;28;20674;-68
2023/09/22 15:05:31;;;;;;;1.90;1.73;;;20.00;92.30;;;;;;10492530;28;20803;-68
2023/09/22 15:10:32;;;;;;;1.83;1.60;;;20.00;92.30;;;;;;10500845;28;20760;-67
2023/09/22 15:15:35;;;;;;;2.13;1.50;;;19.90;92.50;;;;;;10498132;28;20395;-68
2023/09/22 15:20:36;;;;;;;1.75;1.60;;;19.90;92.50;;;;;;10505963;28;21512;-74
2023/09/22 15:25:36;;;;;;;1.60;1.50;;;19.80;92.60;;;;;;10489898;28;20507;-69
2023/09/22 15:30:45;;;;;;;2.00;1.80;;;19.80;92.80;;;;;;10488393;28;20389;-69
2023/09/22 15:35:46;;;;;;;2.87;1.70;;;19.90;93.00;;;;;;10501153;28;20462;-72
2023/09/22 15:41:02;;;;;;;2.17;1.83;;;19.80;93.00;;;;;;10486985;28;20458;-70
2023/09/22 15:46:03;;;;;;;3.07;1.73;;;19.70;93.00;;;;;;10493004;28;20440;-68
2023/09/22 15:51:04;;;;;;;4.23;2.47;;;19.70;93.10;;;;;;10495258;28;20681;-69
2023/09/22 15:56:06;;;;;;;4.03;2.23;;;19.70;93.10;;;;;;10503328;28;20919;-68
2023/09/22 16:01:06;;;;;;;3.47;2.30;;;19.70;93.10;;;;;;10511268;28;20410;-76
2023/09/22 16:06:08;;;;;;;5.03;2.72;;;19.70;93.00;;;;;;10502997;28;20966;-67
2023/09/22 16:11:14;;;;;;;6.32;2.50;;;19.60;93.00;;;;;;10498019;28;20396;-67
2023/09/22 16:16:15;;;;;;;6.20;2.55;;;19.60;93.10;;;;;;10505965;28;20386;-68
2023/09/22 16:21:16;;;;;;;4.18;2.35;;;19.60;93.00;;;;;;10496673;28;20466;-68
2023/09/22 16:26:17;;;;;;;4.57;2.58;;;19.60;93.00;;;;;;10499610;28;20436;-66
2023/09/22 16:31:18;;;;;;;5.43;2.37;;;19.60;93.10;;;;;;10493179;28;20474;-68
2023/09/22 16:36:20;;;;;;;2.78;2.15;;;19.60;93.10;;;;;;10502324;28;20443;-69
2023/09/22 16:41:20;;;;;;;3.95;2.30;;;19.60;93.10;;;;;;10495543;28;20950;-67
2023/09/22 16:46:21;;;;;;;5.40;2.70;;;19.60;93.00;;;;;;10506436;28;20405;-67
2023/09/22 16:51:22;;;;;;;4.70;2.10;;;19.60;93.10;;;;;;10495719;28;20396;-67
2023/09/22 16:56:28;;;;;;;3.87;2.10;;;19.50;93.00;;;;;;10514054;28;20391;-65
2023/09/22 17:01:29;;;;;;;3.92;2.22;;;19.50;93.00;;;;;;10490787;28;20437;-68
2023/09/22 17:06:29;;;;;;;3.70;2.23;;;19.50;93.10;;;;;;10501187;28;20432;-67
2023/09/22 17:11:30;;;;;;;3.23;2.10;;;19.50;93.20;;;;;;10495630;28;20397;-67
2023/09/22 17:16:31;;;;;;;2.80;1.80;;;19.50;93.20;;;;;;10491650;28;20392;-65
2023/09/22 17:21:31;;;;;;;3.05;2.00;;;19.50;93.30;;;;;;10496395;28;20435;-66
2023/09/22 17:26:32;;;;;;;3.28;1.80;;;19.40;93.30;;;;;;10486634;28;20959;-67
2023/09/22 17:31:33;;;;;;;3.50;1.88;;;19.40;93.30;;;;;;10494190;28;20490;-67
2023/09/22 17:36:33;;;;;;;3.00;1.88;;;19.40;93.30;;;;;;10486446;28;20418;-65
2023/09/22 17:41:36;;;;;;;2.40;1.90;;;19.40;93.50;;;;;;10492725;28;20424;-67
2023/09/22 17:46:37;;;;;;;2.20;1.70;;;19.40;93.20;;;;;;10494702;28;20408;-65
2023/09/22 17:51:37;;;;;;;3.20;1.90;;;19.40;93.20;;;;;;10489382;28;20400;-66
2023/09/22 17:56:38;;;;;;;3.10;1.80;;;19.40;93.20;;;;;;10501720;28;20398;-66
2023/09/22 18:01:38;;;;;;;2.57;1.80;;;19.30;93.20;;;;;;10498691;28;20493;-64
2023/09/22 18:06:41;;;;;;;1.80;1.60;;;19.30;93.20;;;;;;10495879;28;20491;-67
2023/09/22 18:11:43;;;;;;;3.28;1.90;;;19.30;93.20;;;;;;10500930;28;20404;-70
2023/09/22 18:16:44;;;;;;;4.30;2.28;;;19.30;93.40;;;;;;10495657;28;20961;-70
2023/09/22 18:21:45;;;;;;;3.83;2.10;;;19.30;93.60;;;;;;10472065;28;20692;-67
2023/09/22 18:26:45;;;;;;;2.65;1.90;;;19.30;93.60;;;;;;10481698;28;20411;-67
2023/09/22 18:31:46;;;;;;;2.87;1.80;;;19.30;93.50;;;;;;10480009;28;20567;-66
2023/09/22 18:36:47;;;;;;;3.37;1.80;;;19.20;93.50;;;;;;10481556;28;20415;-67
2023/09/22 18:41:48;;;;;;;2.37;1.70;;;19.30;93.50;;;;;;10489942;28;21162;-66
2023/09/22 18:46:50;;;;;;;3.20;1.73;;;19.30;93.50;;;;;;10489199;28;20454;-67
2023/09/22 18:51:50;;;;;;;2.87;1.90;;;19.30;93.60;;;;;;10492465;28;20395;-67
2023/09/22 18:56:51;;;;;;;2.80;1.83;;;19.30;93.60;;;;;;10496554;28;20652;-66
2023/09/22 19:01:52;;;;;;;2.88;1.80;;;19.20;93.60;;;;;;10497433;28;20453;-66
2023/09/22 19:06:53;;;;;;;2.43;1.80;;;19.20;93.70;;;;;;10491277;28;20412;-67
2023/09/22 19:11:54;;;;;;;3.13;1.70;;;19.20;93.70;;;;;;10495109;28;20449;-66
2023/09/22 19:16:55;;;;;;;2.58;1.85;;;19.20;93.80;;;;;;10487264;28;20784;-67
2023/09/22 19:21:56;;;;;;;3.07;2.10;;;19.20;93.80;;;;;;10484880;28;20845;-67
2023/09/22 19:26:56;;;;;;;3.27;1.80;;;19.20;93.80;;;;;;10484687;28;20498;-66
2023/09/22 19:31:59;;;;;;;2.60;1.90;;;19.10;93.90;;;;;;10485004;28;20789;-68
2023/09/22 19:36:59;;;;;;;2.70;1.80;;;19.10;93.90;;;;;;10493209;28;20414;-66
2023/09/22 19:42:00;;;;;;;2.73;1.80;;;19.10;94.00;;;;;;10492309;28;20898;-66
2023/09/22 19:47:00;;;;;;;2.23;1.87;;;19.10;94.10;;;;;;10484147;28;20495;-67
2023/09/22 19:52:01;;;;;;;3.50;2.10;;;19.10;94.10;;;;;;10480182;28;20384;-65
2023/09/22 19:57:04;;;;;;;2.83;1.73;;;19.00;94.10;;;;;;10494195;28;20421;-66
2023/09/22 20:02:05;;;;;;;2.43;2.00;;;19.00;94.10;;;;;;10492505;28;20400;-66
2023/09/22 20:07:06;;;;;;;2.67;1.88;;;19.00;94.10;;;;;;10486286;28;20558;-67
2023/09/22 20:12:07;;;;;;;2.97;1.98;;;19.00;94.20;;;;;;10484015;28;20428;-66
2023/09/22 20:17:07;;;;;;;2.53;1.83;;;19.00;94.10;;;;;;10493462;28;20425;-67
2023/09/22 20:22:08;;;;;;;2.47;1.90;;;19.00;94.20;;;;;;10493317;28;20750;-66
2023/09/22 20:27:08;;;;;;;2.63;1.90;;;19.00;94.20;;;;;;10494106;28;20484;-66
2023/09/22 20:32:09;;;;;;;3.50;2.07;;;19.00;94.20;;;;;;10494276;28;20908;-66
2023/09/22 20:37:10;;;;;;;2.37;1.97;;;18.90;94.30;;;;;;10491938;28;20402;-65
2023/09/22 20:42:11;;;;;;;2.73;1.77;;;18.90;94.30;;;;;;10491637;28;20489;-67
2023/09/22 20:47:12;;;;;;;2.67;1.90;;;18.90;94.30;;;;;;10495306;28;20410;-66
2023/09/22 20:52:14;;;;;;;2.17;1.67;;;18.90;94.30;;;;;;10493669;28;20398;-64
2023/09/22 20:57:16;;;;;;;2.65;1.85;;;18.90;94.30;;;;;;10496148;28;20716;-67
2023/09/22 21:02:17;;;;;;;2.10;1.70;;;18.90;94.30;;;;;;10499122;28;20409;-66
2023/09/22 21:07:18;;;;;;;2.25;1.80;;;18.80;94.20;;;;;;10494003;28;20418;-68
2023/09/22 21:12:19;;;;;;;1.92;1.73;;;18.80;94.20;;;;;;10495117;28;20437;-67
2023/09/22 21:17:19;;;;;;;1.93;1.70;;;18.90;94.30;;;;;;10500928;28;20393;-67
2023/09/22 21:22:20;;;;;;;2.03;1.80;;;18.80;94.20;;;;;;10487948;28;20407;-67
2023/09/22 21:27:21;;;;;;;1.67;1.50;;;18.80;94.20;;;;;;10490467;28;20411;-66
2023/09/22 21:32:22;;;;;;;2.10;1.70;;;18.80;94.20;;;;;;10495629;28;20394;-65
2023/09/22 21:37:22;;;;;;;1.92;1.73;;;18.80;94.20;;;;;;10496480;28;20402;-66
2023/09/22 21:42:23;;;;;;;2.77;1.77;;;18.80;94.30;;;;;;10493074;28;20939;-67
2023/09/22 21:47:24;;;;;;;2.53;1.73;;;18.70;94.20;;;;;;10496267;28;21159;-68
2023/09/22 21:52:24;;;;;;;2.23;1.60;;;18.70;94.30;;;;;;10494290;28;20592;-65
2023/09/22 21:57:25;;;;;;;3.20;1.90;;;18.70;94.30;;;;;;10496862;28;20399;-66
2023/09/22 22:02:29;;;;;;;1.80;1.60;;;18.70;94.30;;;;;;10494438;28;20405;-68
2023/09/22 22:07:30;;;;;;;2.60;1.77;;;18.70;94.30;;;;;;10495529;28;20779;-67
2023/09/22 22:12:33;;;;;;;2.95;1.90;;;18.70;94.40;;;;;;10494312;28;20415;-67
2023/09/22 22:17:35;;;;;;;2.47;1.77;;;18.70;94.30;;;;;;10479356;28;20437;-67
2023/09/22 22:22:36;;;;;;;2.20;1.53;;;18.70;94.40;;;;;;10488402;28;20814;-67
2023/09/22 22:27:36;;;;;;;1.80;1.55;;;18.70;94.40;;;;;;10498740;28;20410;-67
2023/09/22 22:32:37;;;;;;;2.22;1.70;;;18.60;94.40;;;;;;10493605;28;20469;-66
2023/09/22 22:37:38;;;;;;;2.00;1.80;;;18.60;94.40;;;;;;10488287;28;20410;-67
2023/09/22 22:42:40;;;;;;;2.40;1.60;;;18.70;94.50;;;;;;10493349;28;20399;-66
2023/09/22 22:47:41;;;;;;;2.05;1.50;;;18.60;94.50;;;;;;10502412;28;20682;-68
2023/09/22 22:52:41;;;;;;;2.67;1.60;;;18.60;94.50;;;;;;10493932;28;20403;-66
2023/09/22 22:57:46;;;;;;;1.90;1.60;;;18.60;94.50;;;;;;10503837;28;20489;-67
2023/09/22 23:02:51;;;;;;;2.53;1.50;;;18.60;94.50;;;;;;10500243;28;20459;-67
2023/09/22 23:07:52;;;;;;;1.70;1.38;;;18.60;94.50;;;;;;10495029;28;20495;-66
2023/09/22 23:12:54;;;;;;;1.87;1.30;;;18.50;94.60;;;;;;10506960;28;20420;-66
2023/09/22 23:17:55;;;;;;;2.05;1.60;;;18.60;94.60;;;;;;10500230;28;20478;-67
2023/09/22 23:22:56;;;;;;;2.67;1.55;;;18.50;94.60;;;;;;10505706;28;20467;-65
2023/09/22 23:27:57;;;;;;;2.00;1.50;;;18.60;94.70;;;;;;10499854;28;20474;-67
2023/09/22 23:32:58;;;;;;;1.55;1.20;;;18.50;94.70;;;;;;10494666;28;20533;-67
2023/09/22 23:38:00;;;;;;;1.45;1.30;;;18.50;94.70;;;;;;10494547;28;20481;-66
2023/09/22 23:43:03;;;;;;;1.67;1.30;;;18.40;94.60;;;;;;10501219;28;20509;-67
2023/09/22 23:48:04;;;;;;;1.53;1.33;;;18.40;94.60;;;;;;10495575;28;20399;-67
2023/09/22 23:53:05;;;;;;;1.70;1.30;;;18.40;94.60;;;;;;10500400;28;20457;-68
2023/09/22 23:58:05;;;;;;;1.53;1.30;;;18.40;94.60;;;;;;10510163;28;20397;-67
